sensor_id;sensor_type;location;lat;lon;timestamp;P1;durP1;ratioP1;P2;durP2;ratioP2
65275;SDS011;51875;49.994;14.052;2024-01-11T00:01:12;64.53;;;23.40;;
65275;SDS011;51875;49.994;14.052;2024-01-11T00:02:28;56.90;;;20.90;;
65275;SDS011;51875;49.994;14.052;2024-01-11T00:03:44;59.63;;;23.02;;
65275;SDS011;51875;49.994;14.052;2024-01-11T00:05:00;60.60;;;20.48;;
65275;SDS011;51875;49.994;14.052;2024-01-11T00:06:16;58.13;;;20.70;;
65275;SDS011;51875;49.994;14.052;2024-01-11T00:07:32;57.83;;;22.00;;
65275;SDS011;51875;49.994;14.052;2024-01-11T00:08:48;58.17;;;20.90;;
65275;SDS011;51875;49.994;14.052;2024-01-11T00:10:05;59.45;;;20.88;;
65275;SDS011;51875;49.994;14.052;2024-01-11T00:11:22;59.15;;;20.65;;
65275;SDS011;51875;49.994;14.052;2024-01-11T00:12:39;59.33;;;19.95;;
65275;SDS011;51875;49.994;14.052;2024-01-11T00:13:55;55.80;;;21.27;;
65275;SDS011;51875;49.994;14.052;2024-01-11T00:15:13;52.17;;;21.10;;
65275;SDS011;51875;49.994;14.052;2024-01-11T00:16:29;62.78;;;21.50;;
65275;SDS011;51875;49.994;14.052;2024-01-11T00:17:45;56.53;;;20.13;;
65275;SDS011;51875;49.994;14.052;2024-01-11T00:19:01;55.30;;;21.02;;
65275;SDS011;51875;49.994;14.052;2024-01-11T00:20:17;58.85;;;21.08;;
65275;SDS011;51875;49.994;14.052;2024-01-11T00:21:34;53.28;;;20.95;;
65275;SDS011;51875;49.994;14.052;2024-01-11T00:22:50;57.58;;;20.23;;
65275;SDS011;51875;49.994;14.052;2024-01-11T00:24:07;54.67;;;21.27;;
65275;SDS011;51875;49.994;14.052;2024-01-11T00:25:23;58.72;;;19.25;;
65275;SDS011;51875;49.994;14.052;2024-01-11T00:26:39;55.17;;;19.60;;
65275;SDS011;51875;49.994;14.052;2024-01-11T00:27:57;61.55;;;20.92;;
65275;SDS011;51875;49.994;14.052;2024-01-11T00:29:13;52.55;;;19.48;;
65275;SDS011;51875;49.994;14.052;2024-01-11T00:30:29;54.13;;;19.65;;
65275;SDS011;51875;49.994;14.052;2024-01-11T00:31:46;50.78;;;17.38;;
65275;SDS011;51875;49.994;14.052;2024-01-11T00:33:02;45.30;;;18.25;;
65275;SDS011;51875;49.994;14.052;2024-01-11T00:34:18;49.83;;;18.63;;
65275;SDS011;51875;49.994;14.052;2024-01-11T00:35:34;36.58;;;15.73;;
65275;SDS011;51875;49.994;14.052;2024-01-11T00:36:50;39.33;;;14.45;;
65275;SDS011;51875;49.994;14.052;2024-01-11T00:38:07;44.38;;;15.63;;
65275;SDS011;51875;49.994;14.052;2024-01-11T00:39:23;50.42;;;17.92;;
65275;SDS011;51875;49.994;14.052;2024-01-11T00:40:39;43.35;;;15.75;;
65275;SDS011;51875;49.994;14.052;2024-01-11T00:41:55;38.70;;;15.10;;
65275;SDS011;51875;49.994;14.052;2024-01-11T00:43:11;42.03;;;15.80;;
65275;SDS011;51875;49.994;14.052;2024-01-11T00:44:27;43.20;;;14.95;;
65275;SDS011;51875;49.994;14.052;2024-01-11T00:45:44;34.97;;;13.88;;
65275;SDS011;51875;49.994;14.052;2024-01-11T00:47:02;40.08;;;13.73;;
65275;SDS011;51875;49.994;14.052;2024-01-11T00:48:19;41.30;;;16.27;;
65275;SDS011;51875;49.994;14.052;2024-01-11T00:49:35;45.33;;;15.35;;
65275;SDS011;51875;49.994;14.052;2024-01-11T00:50:51;48.45;;;16.30;;
65275;SDS011;51875;49.994;14.052;2024-01-11T00:52:08;46.15;;;16.80;;
65275;SDS011;51875;49.994;14.052;2024-01-11T00:53:25;47.50;;;17.60;;
65275;SDS011;51875;49.994;14.052;2024-01-11T00:54:46;48.65;;;17.20;;
65275;SDS011;51875;49.994;14.052;2024-01-11T00:56:02;55.78;;;19.30;;
65275;SDS011;51875;49.994;14.052;2024-01-11T00:57:18;57.55;;;19.25;;
65275;SDS011;51875;49.994;14.052;2024-01-11T00:58:34;56.33;;;20.30;;
65275;SDS011;51875;49.994;14.052;2024-01-11T00:59:51;57.47;;;19.42;;
65275;SDS011;51875;49.994;14.052;2024-01-11T01:01:10;47.80;;;18.63;;
65275;SDS011;51875;49.994;14.052;2024-01-11T01:02:27;41.47;;;16.42;;
65275;SDS011;51875;49.994;14.052;2024-01-11T01:03:43;42.28;;;15.52;;
65275;SDS011;51875;49.994;14.052;2024-01-11T01:05:01;45.55;;;17.35;;
65275;SDS011;51875;49.994;14.052;2024-01-11T01:06:18;45.13;;;16.60;;
65275;SDS011;51875;49.994;14.052;2024-01-11T01:07:34;43.70;;;16.00;;
65275;SDS011;51875;49.994;14.052;2024-01-11T01:08:50;48.60;;;16.27;;
65275;SDS011;51875;49.994;14.052;2024-01-11T01:10:07;44.03;;;16.15;;
65275;SDS011;51875;49.994;14.052;2024-01-11T01:11:24;45.60;;;16.52;;
65275;SDS011;51875;49.994;14.052;2024-01-11T01:12:40;45.33;;;16.45;;
65275;SDS011;51875;49.994;14.052;2024-01-11T01:13:57;48.38;;;14.90;;
65275;SDS011;51875;49.994;14.052;2024-01-11T01:15:14;42.08;;;16.42;;
65275;SDS011;51875;49.994;14.052;2024-01-11T01:16:30;47.45;;;17.00;;
65275;SDS011;51875;49.994;14.052;2024-01-11T01:17:46;40.83;;;16.25;;
65275;SDS011;51875;49.994;14.052;2024-01-11T01:19:02;48.00;;;15.93;;
65275;SDS011;51875;49.994;14.052;2024-01-11T01:20:18;48.35;;;17.60;;
65275;SDS011;51875;49.994;14.052;2024-01-11T01:21:36;43.20;;;14.68;;
65275;SDS011;51875;49.994;14.052;2024-01-11T01:22:52;46.22;;;15.00;;
65275;SDS011;51875;49.994;14.052;2024-01-11T01:24:08;49.90;;;16.27;;
65275;SDS011;51875;49.994;14.052;2024-01-11T01:25:25;34.47;;;14.80;;
65275;SDS011;51875;49.994;14.052;2024-01-11T01:26:41;32.10;;;12.25;;
65275;SDS011;51875;49.994;14.052;2024-01-11T01:27:57;44.90;;;14.50;;
65275;SDS011;51875;49.994;14.052;2024-01-11T01:29:15;39.03;;;14.95;;
65275;SDS011;51875;49.994;14.052;2024-01-11T01:30:31;43.72;;;14.90;;
65275;SDS011;51875;49.994;14.052;2024-01-11T01:31:49;32.95;;;11.98;;
65275;SDS011;51875;49.994;14.052;2024-01-11T01:33:05;22.73;;;8.57;;
65275;SDS011;51875;49.994;14.052;2024-01-11T01:34:21;27.10;;;9.73;;
65275;SDS011;51875;49.994;14.052;2024-01-11T01:35:37;33.13;;;13.00;;
65275;SDS011;51875;49.994;14.052;2024-01-11T01:36:53;41.97;;;13.10;;
65275;SDS011;51875;49.994;14.052;2024-01-11T01:38:10;27.73;;;11.52;;
65275;SDS011;51875;49.994;14.052;2024-01-11T01:39:26;29.60;;;10.82;;
65275;SDS011;51875;49.994;14.052;2024-01-11T01:40:42;38.88;;;12.27;;
65275;SDS011;51875;49.994;14.052;2024-01-11T01:41:58;35.40;;;11.75;;
65275;SDS011;51875;49.994;14.052;2024-01-11T01:43:15;41.78;;;13.32;;
65275;SDS011;51875;49.994;14.052;2024-01-11T01:44:33;39.78;;;15.23;;
65275;SDS011;51875;49.994;14.052;2024-01-11T01:45:49;43.83;;;15.05;;
65275;SDS011;51875;49.994;14.052;2024-01-11T01:47:07;40.80;;;15.38;;
65275;SDS011;51875;49.994;14.052;2024-01-11T01:48:26;36.40;;;15.75;;
65275;SDS011;51875;49.994;14.052;2024-01-11T01:49:43;43.63;;;16.38;;
65275;SDS011;51875;49.994;14.052;2024-01-11T01:51:04;35.13;;;13.10;;
65275;SDS011;51875;49.994;14.052;2024-01-11T01:52:22;37.50;;;15.30;;
65275;SDS011;51875;49.994;14.052;2024-01-11T01:53:39;34.40;;;13.10;;
65275;SDS011;51875;49.994;14.052;2024-01-11T01:54:56;43.20;;;15.27;;
65275;SDS011;51875;49.994;14.052;2024-01-11T01:56:15;39.97;;;15.02;;
65275;SDS011;51875;49.994;14.052;2024-01-11T01:57:32;43.08;;;14.35;;
65275;SDS011;51875;49.994;14.052;2024-01-11T01:58:51;38.10;;;14.15;;
65275;SDS011;51875;49.994;14.052;2024-01-11T02:00:09;42.13;;;14.85;;
65275;SDS011;51875;49.994;14.052;2024-01-11T02:01:28;44.55;;;14.77;;
65275;SDS011;51875;49.994;14.052;2024-01-11T02:02:44;45.15;;;14.88;;
65275;SDS011;51875;49.994;14.052;2024-01-11T02:04:01;40.53;;;14.40;;
65275;SDS011;51875;49.994;14.052;2024-01-11T02:05:18;43.50;;;14.98;;
65275;SDS011;51875;49.994;14.052;2024-01-11T02:06:35;34.40;;;14.15;;
65275;SDS011;51875;49.994;14.052;2024-01-11T02:07:52;41.25;;;14.02;;
65275;SDS011;51875;49.994;14.052;2024-01-11T02:09:08;34.45;;;14.15;;
65275;SDS011;51875;49.994;14.052;2024-01-11T02:10:26;41.20;;;13.68;;
65275;SDS011;51875;49.994;14.052;2024-01-11T02:11:42;37.38;;;13.90;;
65275;SDS011;51875;49.994;14.052;2024-01-11T02:13:00;43.53;;;15.20;;
65275;SDS011;51875;49.994;14.052;2024-01-11T02:14:19;36.97;;;14.15;;
65275;SDS011;51875;49.994;14.052;2024-01-11T02:15:35;25.88;;;9.63;;
65275;SDS011;51875;49.994;14.052;2024-01-11T02:16:53;14.02;;;8.00;;
65275;SDS011;51875;49.994;14.052;2024-01-11T02:18:09;24.98;;;10.52;;
65275;SDS011;51875;49.994;14.052;2024-01-11T02:19:27;32.90;;;12.43;;
65275;SDS011;51875;49.994;14.052;2024-01-11T02:20:43;36.22;;;13.07;;
65275;SDS011;51875;49.994;14.052;2024-01-11T02:22:00;32.15;;;13.57;;
65275;SDS011;51875;49.994;14.052;2024-01-11T02:23:31;32.25;;;12.18;;
65275;SDS011;51875;49.994;14.052;2024-01-11T02:24:47;37.35;;;13.52;;
65275;SDS011;51875;49.994;14.052;2024-01-11T02:26:05;26.40;;;11.82;;
65275;SDS011;51875;49.994;14.052;2024-01-11T02:27:21;43.40;;;15.07;;
65275;SDS011;51875;49.994;14.052;2024-01-11T02:28:37;39.72;;;13.50;;
65275;SDS011;51875;49.994;14.052;2024-01-11T02:31:15;24.95;;;9.57;;
65275;SDS011;51875;49.994;14.052;2024-01-11T02:32:32;27.75;;;12.20;;
65275;SDS011;51875;49.994;14.052;2024-01-11T02:33:49;33.53;;;12.82;;
65275;SDS011;51875;49.994;14.052;2024-01-11T02:35:07;37.65;;;13.55;;
65275;SDS011;51875;49.994;14.052;2024-01-11T02:36:23;36.00;;;13.75;;
65275;SDS011;51875;49.994;14.052;2024-01-11T02:37:41;33.88;;;13.15;;
65275;SDS011;51875;49.994;14.052;2024-01-11T02:38:58;35.95;;;12.15;;
65275;SDS011;51875;49.994;14.052;2024-01-11T02:40:15;30.30;;;10.60;;
65275;SDS011;51875;49.994;14.052;2024-01-11T02:41:31;38.03;;;14.52;;
65275;SDS011;51875;49.994;14.052;2024-01-11T02:42:48;36.83;;;13.85;;
65275;SDS011;51875;49.994;14.052;2024-01-11T02:44:06;26.02;;;10.88;;
65275;SDS011;51875;49.994;14.052;2024-01-11T02:45:22;21.45;;;9.50;;
65275;SDS011;51875;49.994;14.052;2024-01-11T02:46:39;23.40;;;10.00;;
65275;SDS011;51875;49.994;14.052;2024-01-11T02:47:56;21.00;;;9.43;;
65275;SDS011;51875;49.994;14.052;2024-01-11T02:49:13;25.50;;;7.57;;
65275;SDS011;51875;49.994;14.052;2024-01-11T02:50:29;21.00;;;9.25;;
65275;SDS011;51875;49.994;14.052;2024-01-11T02:51:45;21.15;;;8.70;;
65275;SDS011;51875;49.994;14.052;2024-01-11T02:53:03;34.00;;;12.30;;
65275;SDS011;51875;49.994;14.052;2024-01-11T02:54:19;33.92;;;12.95;;
65275;SDS011;51875;49.994;14.052;2024-01-11T02:55:35;34.20;;;13.00;;
65275;SDS011;51875;49.994;14.052;2024-01-11T02:56:51;28.15;;;10.85;;
65275;SDS011;51875;49.994;14.052;2024-01-11T02:58:09;21.73;;;8.77;;
65275;SDS011;51875;49.994;14.052;2024-01-11T02:59:25;28.63;;;11.77;;
65275;SDS011;51875;49.994;14.052;2024-01-11T03:00:41;34.35;;;12.80;;
65275;SDS011;51875;49.994;14.052;2024-01-11T03:01:57;26.65;;;10.73;;
65275;SDS011;51875;49.994;14.052;2024-01-11T03:03:13;35.65;;;12.82;;
65275;SDS011;51875;49.994;14.052;2024-01-11T03:04:30;44.63;;;14.80;;
65275;SDS011;51875;49.994;14.052;2024-01-11T03:05:46;50.00;;;15.30;;
65275;SDS011;51875;49.994;14.052;2024-01-11T03:07:03;38.80;;;15.75;;
65275;SDS011;51875;49.994;14.052;2024-01-11T03:08:19;35.80;;;14.15;;
65275;SDS011;51875;49.994;14.052;2024-01-11T03:09:36;37.53;;;12.90;;
65275;SDS011;51875;49.994;14.052;2024-01-11T03:10:52;32.20;;;13.32;;
65275;SDS011;51875;49.994;14.052;2024-01-11T03:12:08;38.70;;;13.75;;
65275;SDS011;51875;49.994;14.052;2024-01-11T03:13:25;31.15;;;13.00;;
65275;SDS011;51875;49.994;14.052;2024-01-11T03:14:42;38.55;;;14.38;;
65275;SDS011;51875;49.994;14.052;2024-01-11T03:15:58;33.63;;;13.07;;
65275;SDS011;51875;49.994;14.052;2024-01-11T03:17:15;38.60;;;13.15;;
65275;SDS011;51875;49.994;14.052;2024-01-11T03:18:31;38.90;;;14.38;;
65275;SDS011;51875;49.994;14.052;2024-01-11T03:19:48;42.25;;;15.70;;
65275;SDS011;51875;49.994;14.052;2024-01-11T03:21:05;38.97;;;14.98;;
65275;SDS011;51875;49.994;14.052;2024-01-11T03:22:22;37.45;;;15.63;;
65275;SDS011;51875;49.994;14.052;2024-01-11T03:23:38;43.88;;;14.60;;
65275;SDS011;51875;49.994;14.052;2024-01-11T03:24:54;46.50;;;15.30;;
65275;SDS011;51875;49.994;14.052;2024-01-11T03:26:15;43.90;;;15.63;;
65275;SDS011;51875;49.994;14.052;2024-01-11T03:27:32;48.25;;;16.70;;
65275;SDS011;51875;49.994;14.052;2024-01-11T03:28:48;44.30;;;16.23;;
65275;SDS011;51875;49.994;14.052;2024-01-11T03:30:05;40.85;;;14.77;;
65275;SDS011;51875;49.994;14.052;2024-01-11T03:31:24;39.55;;;14.60;;
65275;SDS011;51875;49.994;14.052;2024-01-11T03:32:42;43.80;;;15.48;;
65275;SDS011;51875;49.994;14.052;2024-01-11T03:33:58;38.17;;;13.98;;
65275;SDS011;51875;49.994;14.052;2024-01-11T03:35:15;34.25;;;13.18;;
65275;SDS011;51875;49.994;14.052;2024-01-11T03:36:32;45.53;;;14.18;;
65275;SDS011;51875;49.994;14.052;2024-01-11T03:37:48;38.00;;;14.05;;
65275;SDS011;51875;49.994;14.052;2024-01-11T03:39:04;39.13;;;14.82;;
65275;SDS011;51875;49.994;14.052;2024-01-11T03:40:20;39.58;;;14.73;;
65275;SDS011;51875;49.994;14.052;2024-01-11T03:41:36;36.30;;;14.48;;
65275;SDS011;51875;49.994;14.052;2024-01-11T03:42:52;43.58;;;16.08;;
65275;SDS011;51875;49.994;14.052;2024-01-11T03:44:08;40.53;;;15.05;;
65275;SDS011;51875;49.994;14.052;2024-01-11T03:45:25;40.00;;;14.00;;
65275;SDS011;51875;49.994;14.052;2024-01-11T03:46:41;41.13;;;14.95;;
65275;SDS011;51875;49.994;14.052;2024-01-11T03:47:57;38.90;;;14.63;;
65275;SDS011;51875;49.994;14.052;2024-01-11T03:49:14;38.85;;;14.60;;
65275;SDS011;51875;49.994;14.052;2024-01-11T03:50:30;36.90;;;13.50;;
65275;SDS011;51875;49.994;14.052;2024-01-11T03:51:46;27.00;;;10.68;;
65275;SDS011;51875;49.994;14.052;2024-01-11T03:53:02;35.22;;;13.63;;
65275;SDS011;51875;49.994;14.052;2024-01-11T03:54:20;31.83;;;12.30;;
65275;SDS011;51875;49.994;14.052;2024-01-11T03:55:36;30.27;;;10.98;;
65275;SDS011;51875;49.994;14.052;2024-01-11T03:56:52;31.77;;;12.98;;
65275;SDS011;51875;49.994;14.052;2024-01-11T03:58:10;28.73;;;11.43;;
65275;SDS011;51875;49.994;14.052;2024-01-11T03:59:26;20.80;;;8.95;;
65275;SDS011;51875;49.994;14.052;2024-01-11T04:00:44;22.73;;;10.02;;
65275;SDS011;51875;49.994;14.052;2024-01-11T04:02:02;37.50;;;13.70;;
65275;SDS011;51875;49.994;14.052;2024-01-11T04:03:19;27.65;;;11.02;;
65275;SDS011;51875;49.994;14.052;2024-01-11T04:04:36;28.77;;;11.27;;
65275;SDS011;51875;49.994;14.052;2024-01-11T04:05:52;29.70;;;10.85;;
65275;SDS011;51875;49.994;14.052;2024-01-11T04:07:09;44.05;;;13.65;;
65275;SDS011;51875;49.994;14.052;2024-01-11T04:08:26;33.70;;;11.95;;
65275;SDS011;51875;49.994;14.052;2024-01-11T04:09:42;18.70;;;9.90;;
65275;SDS011;51875;49.994;14.052;2024-01-11T04:11:02;14.23;;;9.65;;
65275;SDS011;51875;49.994;14.052;2024-01-11T04:12:23;31.63;;;12.40;;
65275;SDS011;51875;49.994;14.052;2024-01-11T04:13:39;27.65;;;11.70;;
65275;SDS011;51875;49.994;14.052;2024-01-11T04:14:55;36.28;;;13.05;;
65275;SDS011;51875;49.994;14.052;2024-01-11T04:16:11;31.02;;;12.85;;
65275;SDS011;51875;49.994;14.052;2024-01-11T04:17:27;40.55;;;14.70;;
65275;SDS011;51875;49.994;14.052;2024-01-11T04:18:45;46.45;;;15.43;;
65275;SDS011;51875;49.994;14.052;2024-01-11T04:20:02;21.02;;;8.82;;
65275;SDS011;51875;49.994;14.052;2024-01-11T04:21:22;43.88;;;14.65;;
65275;SDS011;51875;49.994;14.052;2024-01-11T04:22:39;34.63;;;13.27;;
65275;SDS011;51875;49.994;14.052;2024-01-11T04:23:57;31.70;;;10.77;;
65275;SDS011;51875;49.994;14.052;2024-01-11T04:25:13;32.28;;;11.25;;
65275;SDS011;51875;49.994;14.052;2024-01-11T04:26:31;33.70;;;12.98;;
65275;SDS011;51875;49.994;14.052;2024-01-11T04:27:49;36.85;;;13.95;;
65275;SDS011;51875;49.994;14.052;2024-01-11T04:29:05;37.10;;;14.15;;
65275;SDS011;51875;49.994;14.052;2024-01-11T04:30:21;42.30;;;15.45;;
65275;SDS011;51875;49.994;14.052;2024-01-11T04:31:38;37.67;;;13.60;;
65275;SDS011;51875;49.994;14.052;2024-01-11T04:32:54;40.17;;;15.85;;
65275;SDS011;51875;49.994;14.052;2024-01-11T04:34:10;37.22;;;13.70;;
65275;SDS011;51875;49.994;14.052;2024-01-11T04:35:27;37.35;;;14.25;;
65275;SDS011;51875;49.994;14.052;2024-01-11T04:36:44;38.85;;;14.00;;
65275;SDS011;51875;49.994;14.052;2024-01-11T04:38:00;38.38;;;12.50;;
65275;SDS011;51875;49.994;14.052;2024-01-11T04:39:16;29.95;;;10.70;;
65275;SDS011;51875;49.994;14.052;2024-01-11T04:40:32;36.13;;;13.68;;
65275;SDS011;51875;49.994;14.052;2024-01-11T04:41:49;35.35;;;13.63;;
65275;SDS011;51875;49.994;14.052;2024-01-11T04:43:06;35.45;;;13.80;;
65275;SDS011;51875;49.994;14.052;2024-01-11T04:44:24;28.00;;;12.57;;
65275;SDS011;51875;49.994;14.052;2024-01-11T04:45:40;43.63;;;13.73;;
65275;SDS011;51875;49.994;14.052;2024-01-11T04:46:56;35.90;;;12.00;;
65275;SDS011;51875;49.994;14.052;2024-01-11T04:48:13;35.47;;;12.52;;
65275;SDS011;51875;49.994;14.052;2024-01-11T04:49:29;34.63;;;12.43;;
65275;SDS011;51875;49.994;14.052;2024-01-11T04:50:45;25.45;;;10.73;;
65275;SDS011;51875;49.994;14.052;2024-01-11T04:52:02;28.65;;;10.95;;
65275;SDS011;51875;49.994;14.052;2024-01-11T04:53:18;41.28;;;13.95;;
65275;SDS011;51875;49.994;14.052;2024-01-11T04:54:34;34.67;;;13.45;;
65275;SDS011;51875;49.994;14.052;2024-01-11T04:55:52;37.47;;;12.82;;
65275;SDS011;51875;49.994;14.052;2024-01-11T04:57:09;33.10;;;12.27;;
65275;SDS011;51875;49.994;14.052;2024-01-11T04:58:25;24.80;;;11.50;;
65275;SDS011;51875;49.994;14.052;2024-01-11T04:59:41;40.03;;;13.27;;
65275;SDS011;51875;49.994;14.052;2024-01-11T05:00:58;26.50;;;10.80;;
65275;SDS011;51875;49.994;14.052;2024-01-11T05:02:14;42.42;;;14.48;;
65275;SDS011;51875;49.994;14.052;2024-01-11T05:03:30;40.95;;;14.90;;
65275;SDS011;51875;49.994;14.052;2024-01-11T05:04:47;31.92;;;13.57;;
65275;SDS011;51875;49.994;14.052;2024-01-11T05:06:04;33.60;;;13.30;;
65275;SDS011;51875;49.994;14.052;2024-01-11T05:07:21;32.45;;;12.52;;
65275;SDS011;51875;49.994;14.052;2024-01-11T05:08:37;34.28;;;14.15;;
65275;SDS011;51875;49.994;14.052;2024-01-11T05:09:54;32.78;;;13.13;;
65275;SDS011;51875;49.994;14.052;2024-01-11T05:11:16;35.20;;;13.27;;
65275;SDS011;51875;49.994;14.052;2024-01-11T05:12:37;33.30;;;13.15;;
65275;SDS011;51875;49.994;14.052;2024-01-11T05:13:54;33.17;;;12.77;;
65275;SDS011;51875;49.994;14.052;2024-01-11T05:15:14;32.67;;;12.20;;
65275;SDS011;51875;49.994;14.052;2024-01-11T05:16:30;29.02;;;11.75;;
65275;SDS011;51875;49.994;14.052;2024-01-11T05:17:46;32.40;;;12.13;;
65275;SDS011;51875;49.994;14.052;2024-01-11T05:19:03;30.60;;;11.88;;
65275;SDS011;51875;49.994;14.052;2024-01-11T05:20:20;22.92;;;10.07;;
65275;SDS011;51875;49.994;14.052;2024-01-11T05:21:56;18.38;;;6.75;;
65275;SDS011;51875;49.994;14.052;2024-01-11T05:23:33;18.95;;;7.70;;
65275;SDS011;51875;49.994;14.052;2024-01-11T05:25:11;14.80;;;5.10;;
65275;SDS011;51875;49.994;14.052;2024-01-11T05:26:49;19.70;;;8.18;;
65275;SDS011;51875;49.994;14.052;2024-01-11T05:28:25;9.88;;;3.95;;
65275;SDS011;51875;49.994;14.052;2024-01-11T05:30:02;19.58;;;8.75;;
65275;SDS011;51875;49.994;14.052;2024-01-11T05:31:32;16.25;;;4.57;;
65275;SDS011;51875;49.994;14.052;2024-01-11T05:32:48;8.10;;;5.78;;
65275;SDS011;51875;49.994;14.052;2024-01-11T05:34:24;22.02;;;9.63;;
65275;SDS011;51875;49.994;14.052;2024-01-11T05:35:59;30.67;;;13.40;;
65275;SDS011;51875;49.994;14.052;2024-01-11T05:37:36;36.30;;;13.88;;
65275;SDS011;51875;49.994;14.052;2024-01-11T05:39:12;37.95;;;14.35;;
65275;SDS011;51875;49.994;14.052;2024-01-11T05:40:48;31.73;;;10.23;;
65275;SDS011;51875;49.994;14.052;2024-01-11T05:42:23;33.55;;;12.20;;
65275;SDS011;51875;49.994;14.052;2024-01-11T05:43:59;32.47;;;12.38;;
65275;SDS011;51875;49.994;14.052;2024-01-11T05:45:36;35.90;;;12.63;;
65275;SDS011;51875;49.994;14.052;2024-01-11T05:46:52;32.95;;;13.60;;
65275;SDS011;51875;49.994;14.052;2024-01-11T05:48:30;32.80;;;13.02;;
65275;SDS011;51875;49.994;14.052;2024-01-11T05:50:06;35.83;;;13.18;;
65275;SDS011;51875;49.994;14.052;2024-01-11T05:51:44;30.05;;;12.45;;
65275;SDS011;51875;49.994;14.052;2024-01-11T05:53:20;32.05;;;12.93;;
65275;SDS011;51875;49.994;14.052;2024-01-11T05:54:56;31.98;;;12.02;;
65275;SDS011;51875;49.994;14.052;2024-01-11T05:56:12;31.85;;;12.75;;
65275;SDS011;51875;49.994;14.052;2024-01-11T05:57:48;34.83;;;12.98;;
65275;SDS011;51875;49.994;14.052;2024-01-11T05:59:24;30.83;;;12.85;;
65275;SDS011;51875;49.994;14.052;2024-01-11T06:01:01;31.60;;;11.43;;
65275;SDS011;51875;49.994;14.052;2024-01-11T06:02:37;34.47;;;12.57;;
65275;SDS011;51875;49.994;14.052;2024-01-11T06:04:13;27.30;;;11.75;;
65275;SDS011;51875;49.994;14.052;2024-01-11T06:05:49;30.85;;;11.57;;
65275;SDS011;51875;49.994;14.052;2024-01-11T06:07:26;27.88;;;10.88;;
65275;SDS011;51875;49.994;14.052;2024-01-11T06:09:07;24.88;;;10.75;;
65275;SDS011;51875;49.994;14.052;2024-01-11T06:10:45;27.67;;;11.52;;
65275;SDS011;51875;49.994;14.052;2024-01-11T06:12:01;30.15;;;12.20;;
65275;SDS011;51875;49.994;14.052;2024-01-11T06:13:39;26.55;;;12.50;;
65275;SDS011;51875;49.994;14.052;2024-01-11T06:15:16;42.65;;;14.50;;
65275;SDS011;51875;49.994;14.052;2024-01-11T06:16:52;25.65;;;10.88;;
65275;SDS011;51875;49.994;14.052;2024-01-11T06:18:08;44.25;;;13.38;;
65275;SDS011;51875;49.994;14.052;2024-01-11T06:19:24;31.60;;;12.38;;
65275;SDS011;51875;49.994;14.052;2024-01-11T06:21:00;28.88;;;11.10;;
65275;SDS011;51875;49.994;14.052;2024-01-11T06:22:36;26.90;;;12.20;;
65275;SDS011;51875;49.994;14.052;2024-01-11T06:24:12;27.55;;;11.88;;
65275;SDS011;51875;49.994;14.052;2024-01-11T06:25:28;37.00;;;13.52;;
65275;SDS011;51875;49.994;14.052;2024-01-11T06:27:04;28.77;;;12.38;;
65275;SDS011;51875;49.994;14.052;2024-01-11T06:28:41;23.85;;;9.63;;
65275;SDS011;51875;49.994;14.052;2024-01-11T06:30:17;31.00;;;11.10;;
65275;SDS011;51875;49.994;14.052;2024-01-11T06:31:33;32.70;;;12.75;;
65275;SDS011;51875;49.994;14.052;2024-01-11T06:32:50;22.98;;;10.15;;
65275;SDS011;51875;49.994;14.052;2024-01-11T06:34:26;38.10;;;13.20;;
65275;SDS011;51875;49.994;14.052;2024-01-11T06:36:04;24.27;;;9.93;;
65275;SDS011;51875;49.994;14.052;2024-01-11T06:37:42;26.63;;;10.65;;
65275;SDS011;51875;49.994;14.052;2024-01-11T06:38:59;28.75;;;11.77;;
65275;SDS011;51875;49.994;14.052;2024-01-11T06:40:15;40.72;;;13.57;;
65275;SDS011;51875;49.994;14.052;2024-01-11T06:41:52;33.72;;;13.60;;
65275;SDS011;51875;49.994;14.052;2024-01-11T06:43:28;35.40;;;14.18;;
65275;SDS011;51875;49.994;14.052;2024-01-11T06:45:04;32.55;;;12.10;;
65275;SDS011;51875;49.994;14.052;2024-01-11T06:46:40;27.13;;;8.55;;
65275;SDS011;51875;49.994;14.052;2024-01-11T06:48:17;26.48;;;7.15;;
65275;SDS011;51875;49.994;14.052;2024-01-11T06:49:54;33.95;;;13.38;;
65275;SDS011;51875;49.994;14.052;2024-01-11T06:51:14;30.52;;;11.50;;
65275;SDS011;51875;49.994;14.052;2024-01-11T06:52:50;26.77;;;9.77;;
65275;SDS011;51875;49.994;14.052;2024-01-11T06:54:07;37.65;;;12.57;;
65275;SDS011;51875;49.994;14.052;2024-01-11T06:55:25;18.10;;;7.63;;
65275;SDS011;51875;49.994;14.052;2024-01-11T06:56:41;32.33;;;12.80;;
65275;SDS011;51875;49.994;14.052;2024-01-11T06:57:57;19.48;;;10.30;;
65275;SDS011;51875;49.994;14.052;2024-01-11T06:59:14;36.17;;;12.95;;
65275;SDS011;51875;49.994;14.052;2024-01-11T07:00:31;33.53;;;12.10;;
65275;SDS011;51875;49.994;14.052;2024-01-11T07:01:47;33.92;;;12.70;;
65275;SDS011;51875;49.994;14.052;2024-01-11T07:03:05;33.72;;;12.02;;
65275;SDS011;51875;49.994;14.052;2024-01-11T07:04:21;39.17;;;14.23;;
65275;SDS011;51875;49.994;14.052;2024-01-11T07:05:38;28.40;;;12.05;;
65275;SDS011;51875;49.994;14.052;2024-01-11T07:06:54;32.40;;;13.10;;
65275;SDS011;51875;49.994;14.052;2024-01-11T07:08:10;29.50;;;11.20;;
65275;SDS011;51875;49.994;14.052;2024-01-11T07:09:26;40.10;;;13.27;;
65275;SDS011;51875;49.994;14.052;2024-01-11T07:10:42;38.20;;;14.23;;
65275;SDS011;51875;49.994;14.052;2024-01-11T07:11:58;38.47;;;14.68;;
65275;SDS011;51875;49.994;14.052;2024-01-11T07:13:14;43.72;;;16.13;;
65275;SDS011;51875;49.994;14.052;2024-01-11T07:14:32;47.33;;;17.50;;
65275;SDS011;51875;49.994;14.052;2024-01-11T07:15:48;52.20;;;19.85;;
65275;SDS011;51875;49.994;14.052;2024-01-11T07:17:05;54.28;;;19.90;;
65275;SDS011;51875;49.994;14.052;2024-01-11T07:18:22;53.83;;;17.48;;
65275;SDS011;51875;49.994;14.052;2024-01-11T07:19:38;49.80;;;18.00;;
65275;SDS011;51875;49.994;14.052;2024-01-11T07:20:58;48.22;;;14.93;;
65275;SDS011;51875;49.994;14.052;2024-01-11T07:22:15;39.90;;;15.73;;
65275;SDS011;51875;49.994;14.052;2024-01-11T07:23:31;46.53;;;17.38;;
65275;SDS011;51875;49.994;14.052;2024-01-11T07:24:47;40.25;;;15.88;;
65275;SDS011;51875;49.994;14.052;2024-01-11T07:26:03;39.58;;;14.00;;
65275;SDS011;51875;49.994;14.052;2024-01-11T07:27:20;33.28;;;11.13;;
65275;SDS011;51875;49.994;14.052;2024-01-11T07:28:37;29.75;;;11.48;;
65275;SDS011;51875;49.994;14.052;2024-01-11T07:29:53;48.25;;;16.98;;
65275;SDS011;51875;49.994;14.052;2024-01-11T07:31:10;45.45;;;15.70;;
65275;SDS011;51875;49.994;14.052;2024-01-11T07:32:26;39.22;;;15.77;;
65275;SDS011;51875;49.994;14.052;2024-01-11T07:33:43;38.78;;;13.40;;
65275;SDS011;51875;49.994;14.052;2024-01-11T07:35:01;37.70;;;14.65;;
65275;SDS011;51875;49.994;14.052;2024-01-11T07:36:17;36.83;;;14.15;;
65275;SDS011;51875;49.994;14.052;2024-01-11T07:37:33;22.30;;;9.52;;
65275;SDS011;51875;49.994;14.052;2024-01-11T07:38:50;32.50;;;12.80;;
65275;SDS011;51875;49.994;14.052;2024-01-11T07:40:07;39.17;;;14.55;;
65275;SDS011;51875;49.994;14.052;2024-01-11T07:41:27;35.45;;;12.45;;